Lefor, North Dakota
Current Conditions -  °F | °C
As of 12:56 AM on Sunday 21 Dec 2014 (Local Time) from KDIK Reporting Station
Few Clouds Few Clouds  
Wind Chill: 26°   Ceiling: Unl
Heat Index: 26°   Visibility: 10mi
Dew Point: 19°   Wind: 3mph
Humidity: 75%   Direction: 180°S
Pressure: 29.66"   Gusts: NA
Location:  46.69°N, 102.56°W
Report Text: KDIK 210756Z AUTO 18003KT 10SM FEW100 M03/M07 A2966 RMK AO2 SLP063 T10331072
Loading
Personal Weather Stations






























Interactive Weather Map New forecast layout! Learn more

10-Day Weather Forecast

Advertisements
Track Severe Weather on mobile